createdAt,value
2022-10-19T00:01:24.021Z,10.60
2022-10-19T00:04:27.060Z,11.73
2022-10-19T00:07:30.816Z,11.70
2022-10-19T00:10:33.963Z,12.52
2022-10-19T00:13:36.777Z,12.57
2022-10-19T00:16:40.241Z,11.60
2022-10-19T00:19:42.934Z,12.05
2022-10-19T00:22:45.894Z,11.53
2022-10-19T00:25:56.264Z,11.68
2022-10-19T00:28:59.290Z,11.18
2022-10-19T00:32:02.050Z,11.10
2022-10-19T00:35:05.255Z,11.73
2022-10-19T00:38:07.946Z,11.67
2022-10-19T00:41:10.833Z,12.18
2022-10-19T00:44:13.336Z,12.13
2022-10-19T00:47:19.065Z,10.85
2022-10-19T00:50:21.901Z,11.60
2022-10-19T00:53:27.351Z,11.80
2022-10-19T00:56:30.197Z,11.90
2022-10-19T00:59:35.038Z,11.82
2022-10-19T01:02:38.008Z,11.12
2022-10-19T01:05:41.692Z,11.32
2022-10-19T01:08:46.205Z,11.17
2022-10-19T01:12:09.761Z,11.57
2022-10-19T01:15:15.408Z,11.48
2022-10-19T01:18:30.188Z,11.20
2022-10-19T01:21:45.750Z,11.40
2022-10-19T01:25:09.160Z,11.10
2022-10-19T01:28:19.701Z,10.80
2022-10-19T01:31:32.019Z,10.48
2022-10-19T01:34:40.573Z,10.50
2022-10-19T01:37:51.845Z,11.55
2022-10-19T01:41:17.973Z,10.53
2022-10-19T01:44:33.388Z,10.48
2022-10-19T01:47:49.995Z,10.60
2022-10-19T01:50:55.136Z,11.90
2022-10-19T01:54:01.473Z,10.95
2022-10-19T01:57:07.890Z,10.70
2022-10-19T02:00:13.526Z,11.57
2022-10-19T02:03:18.648Z,15.10
2022-10-19T02:06:22.343Z,11.90
2022-10-19T02:09:25.046Z,11.20
2022-10-19T02:12:31.834Z,11.47
2022-10-19T02:15:39.717Z,11.18
2022-10-19T02:18:49.380Z,10.30
2022-10-19T02:21:52.626Z,11.63
2022-10-19T02:24:55.551Z,10.88
2022-10-19T02:27:58.515Z,12.00
2022-10-19T02:31:01.994Z,11.52
2022-10-19T02:34:07.739Z,12.68
2022-10-19T02:37:10.982Z,12.23
2022-10-19T02:40:13.724Z,13.23
2022-10-19T02:43:19.534Z,14.07
2022-10-19T02:47:04.006Z,12.70
2022-10-19T02:50:08.786Z,12.82
2022-10-19T02:53:11.471Z,12.80
2022-10-19T02:56:16.774Z,13.77
2022-10-19T02:59:19.495Z,13.73
2022-10-19T03:02:22.494Z,13.77
2022-10-19T03:05:25.149Z,15.32
2022-10-19T03:08:28.045Z,15.30
2022-10-19T03:11:31.228Z,14.13
2022-10-19T03:14:35.320Z,14.23
2022-10-19T03:17:37.893Z,16.00
2022-10-19T03:20:40.875Z,15.50
2022-10-19T03:23:43.525Z,16.83
2022-10-19T03:26:46.529Z,17.77
2022-10-19T03:29:49.308Z,16.03
2022-10-19T03:32:54.525Z,15.80
2022-10-19T03:36:28.310Z,16.42
2022-10-19T03:39:31.286Z,17.10
2022-10-19T03:42:33.976Z,15.80
2022-10-19T03:45:36.967Z,22.03
2022-10-19T03:48:39.515Z,35.55
2022-10-19T03:51:42.466Z,27.60
2022-10-19T03:54:45.887Z,30.60
2022-10-19T03:57:48.797Z,25.73
2022-10-19T04:00:52.265Z,22.53
2022-10-19T04:03:57.311Z,21.52
2022-10-19T04:07:00.010Z,19.90
2022-10-19T04:10:03.893Z,25.48
2022-10-19T04:13:06.521Z,47.03
2022-10-19T04:16:13.826Z,49.10
2022-10-19T04:19:17.858Z,46.53
2022-10-19T04:22:20.814Z,37.80
2022-10-19T04:25:24.402Z,31.50
2022-10-19T04:28:28.362Z,22.70
2022-10-19T04:31:31.168Z,21.70
2022-10-19T04:34:36.359Z,21.77
2022-10-19T04:37:41.832Z,21.77
2022-10-19T04:40:44.994Z,21.35
2022-10-19T04:43:48.562Z,20.00
2022-10-19T04:46:51.680Z,19.13
2022-10-19T04:49:54.274Z,19.87
2022-10-19T04:52:57.146Z,20.42
2022-10-19T04:56:00.283Z,19.55
2022-10-19T04:59:03.265Z,20.30
2022-10-19T05:02:05.871Z,20.80
2022-10-19T05:05:09.116Z,21.45
2022-10-19T05:08:11.986Z,21.85
2022-10-19T05:11:15.494Z,22.83
2022-10-19T05:14:20.463Z,21.95
2022-10-19T05:17:24.755Z,21.60
2022-10-19T05:20:27.625Z,22.65
2022-10-19T05:26:38.240Z,20.67
2022-10-19T05:29:42.733Z,19.90
2022-10-19T05:32:46.679Z,21.43
2022-10-19T05:35:49.597Z,21.27
2022-10-19T05:38:53.488Z,20.52
2022-10-19T05:41:56.557Z,21.67
2022-10-19T05:45:00.628Z,22.67
2022-10-19T05:48:03.690Z,22.03
2022-10-19T05:51:11.687Z,21.40
2022-10-19T05:54:15.506Z,21.67
2022-10-19T05:57:18.131Z,22.42
2022-10-19T06:00:21.072Z,20.80
2022-10-19T06:03:25.299Z,22.03
2022-10-19T06:06:28.379Z,21.52
2022-10-19T06:09:36.176Z,22.00
2022-10-19T06:12:38.797Z,40.12
2022-10-19T06:15:41.767Z,30.70
2022-10-19T06:18:45.050Z,30.20
2022-10-19T06:21:50.521Z,26.87
2022-10-19T06:24:53.151Z,37.97
2022-10-19T06:27:57.567Z,35.08
2022-10-19T06:31:00.670Z,31.42
2022-10-19T06:34:04.541Z,25.97
2022-10-19T06:37:08.198Z,21.83
2022-10-19T06:40:11.795Z,21.42
2022-10-19T06:43:14.477Z,20.88
2022-10-19T06:46:23.010Z,18.15
2022-10-19T06:49:25.694Z,17.43
2022-10-19T06:52:28.638Z,17.23
2022-10-19T06:55:31.281Z,16.48
2022-10-19T06:58:38.597Z,15.90
2022-10-19T07:01:41.250Z,14.63
2022-10-19T07:04:44.115Z,13.40
2022-10-19T07:07:46.828Z,14.63
2022-10-19T07:10:54.209Z,13.25
2022-10-19T07:13:56.953Z,13.10
2022-10-19T07:16:59.865Z,11.93
2022-10-19T07:20:05.318Z,11.97
2022-10-19T07:23:08.927Z,11.48
2022-10-19T07:26:17.557Z,12.10
2022-10-19T07:29:20.481Z,11.40
2022-10-19T07:32:23.102Z,11.98
2022-10-19T07:35:26.029Z,11.83
2022-10-19T07:38:30.334Z,11.40
2022-10-19T07:41:34.997Z,9.63
2022-10-19T07:44:37.689Z,8.80
2022-10-19T07:47:40.570Z,8.40
2022-10-19T07:50:48.173Z,7.17
2022-10-19T07:53:51.541Z,6.93
2022-10-19T07:56:54.183Z,6.78
2022-10-19T07:59:57.099Z,6.32
2022-10-19T08:03:43.261Z,6.60
2022-10-19T08:06:24.539Z,6.37
2022-10-19T08:09:51.348Z,5.80
2022-10-19T08:12:50.155Z,5.30
2022-10-19T08:15:52.746Z,5.45
2022-10-19T08:19:01.355Z,4.55
2022-10-19T08:22:03.960Z,4.23
2022-10-19T08:25:07.176Z,4.18
2022-10-19T08:28:09.826Z,4.18
2022-10-19T08:31:19.009Z,3.70
2022-10-19T08:34:21.886Z,4.18
2022-10-19T08:37:40.214Z,3.40
2022-10-19T08:40:47.548Z,3.30
2022-10-19T08:44:03.984Z,3.12
2022-10-19T08:47:23.307Z,3.42
2022-10-19T08:50:33.863Z,3.33
2022-10-19T08:53:56.352Z,2.77
2022-10-19T08:57:02.284Z,2.53
2022-10-19T09:00:36.949Z,2.70
2022-10-19T09:03:55.882Z,2.50
2022-10-19T09:07:07.906Z,2.47
2022-10-19T09:10:14.031Z,2.43
2022-10-19T09:13:18.281Z,3.05
2022-10-19T09:16:23.845Z,2.80
2022-10-19T09:19:31.078Z,2.95
2022-10-19T09:22:35.995Z,2.92
2022-10-19T09:25:39.904Z,2.83
2022-10-19T09:28:51.675Z,2.33
2022-10-19T09:35:30.649Z,2.45
2022-10-19T09:38:33.389Z,2.25
2022-10-19T09:41:36.641Z,2.03
2022-10-19T09:44:40.336Z,2.60
2022-10-19T09:47:48.029Z,2.15
2022-10-19T09:50:59.009Z,2.10
2022-10-19T09:54:02.102Z,2.10
2022-10-19T09:57:06.157Z,2.10
2022-10-19T10:00:18.034Z,2.35
2022-10-19T10:03:36.234Z,2.03
2022-10-19T10:06:41.102Z,1.80
2022-10-19T10:09:45.664Z,1.80
2022-10-19T10:12:50.106Z,1.90
2022-10-19T10:16:06.533Z,2.00
2022-10-19T10:19:13.744Z,2.08
2022-10-19T10:22:28.144Z,1.90
2022-10-19T10:25:34.341Z,2.00
2022-10-19T10:28:48.089Z,2.00
2022-10-19T10:32:03.978Z,2.40
2022-10-19T10:35:16.686Z,2.40
2022-10-19T10:38:25.392Z,2.15
2022-10-19T10:41:29.955Z,2.37
2022-10-19T10:44:36.680Z,2.20
2022-10-19T10:47:39.780Z,2.28
2022-10-19T10:50:45.015Z,2.53
2022-10-19T10:53:47.987Z,2.30
2022-10-19T10:57:17.039Z,2.70
2022-10-19T11:00:22.145Z,2.40
2022-10-19T11:03:30.661Z,2.53
2022-10-19T11:06:40.791Z,3.08
2022-10-19T11:09:58.375Z,2.12
2022-10-19T11:13:19.101Z,2.67
2022-10-19T11:16:31.374Z,2.73
2022-10-19T11:19:44.633Z,3.47
2022-10-19T11:23:02.327Z,3.30
2022-10-19T11:26:36.882Z,2.60
2022-10-19T11:29:57.681Z,3.40
2022-10-19T11:33:25.480Z,3.13
2022-10-19T11:36:54.194Z,3.33
2022-10-19T11:40:21.986Z,3.30
2022-10-19T11:43:40.322Z,2.95
2022-10-19T11:47:03.121Z,3.33
2022-10-19T11:50:32.117Z,3.60
2022-10-19T11:54:04.751Z,3.50
2022-10-19T11:57:18.906Z,3.30
2022-10-19T12:00:38.244Z,3.80
2022-10-19T12:04:06.041Z,3.35
2022-10-19T12:07:15.992Z,3.57
2022-10-19T12:10:46.505Z,3.33
2022-10-19T12:13:57.177Z,3.15
2022-10-19T12:17:08.234Z,3.10
2022-10-19T12:20:25.705Z,3.12
2022-10-19T12:23:34.929Z,2.83
2022-10-19T12:26:40.831Z,2.97
2022-10-19T12:29:49.159Z,2.85
2022-10-19T12:33:16.802Z,3.35
2022-10-19T12:36:45.758Z,3.30
2022-10-19T12:40:01.059Z,3.53
2022-10-19T12:43:24.641Z,3.72
2022-10-19T12:46:48.393Z,3.55
2022-10-19T12:49:56.025Z,3.25
2022-10-19T12:52:58.704Z,3.17
2022-10-19T12:56:21.916Z,3.43
2022-10-19T12:59:31.352Z,3.30
2022-10-19T13:02:37.387Z,3.25
2022-10-19T13:05:40.224Z,3.05
2022-10-19T13:08:58.041Z,3.50
2022-10-19T13:12:19.718Z,3.67
2022-10-19T13:15:35.195Z,3.35
2022-10-19T13:18:59.805Z,4.00
2022-10-19T13:22:02.807Z,3.47
2022-10-19T13:25:17.785Z,3.25
2022-10-19T13:28:36.569Z,3.10
2022-10-19T13:31:39.203Z,3.45
2022-10-19T13:34:42.325Z,3.53
2022-10-19T13:37:45.164Z,3.55
2022-10-19T13:40:47.953Z,3.17
2022-10-19T13:44:09.276Z,3.47
2022-10-19T13:47:24.581Z,3.67
2022-10-19T13:50:38.588Z,4.35
2022-10-19T13:54:16.676Z,4.25
2022-10-19T13:57:48.862Z,4.15
2022-10-19T14:01:04.608Z,4.50
2022-10-19T14:04:30.653Z,3.40
2022-10-19T14:07:43.750Z,3.47
2022-10-19T14:11:01.142Z,3.70
2022-10-19T14:14:14.586Z,3.47
2022-10-19T14:17:34.175Z,3.33
2022-10-19T14:20:39.240Z,3.60
2022-10-19T14:23:42.911Z,3.60
2022-10-19T14:26:46.944Z,3.60
2022-10-19T14:29:52.189Z,3.85
2022-10-19T14:32:59.405Z,4.00
2022-10-19T14:36:07.441Z,3.83
2022-10-19T14:39:24.628Z,4.10
2022-10-19T14:42:45.837Z,3.80
2022-10-19T14:46:06.408Z,3.92
2022-10-19T14:49:11.381Z,4.13
2022-10-19T14:52:25.123Z,2.90
2022-10-19T14:55:35.218Z,3.47
2022-10-19T14:59:00.849Z,2.67
2022-10-19T15:02:30.024Z,3.20
2022-10-19T15:05:36.445Z,3.30
2022-10-19T15:08:48.777Z,3.28
2022-10-19T15:11:53.888Z,2.60
2022-10-19T15:14:57.911Z,2.90
2022-10-19T15:18:00.559Z,3.92
2022-10-19T15:21:18.492Z,2.80
2022-10-19T15:24:28.352Z,3.28
2022-10-19T15:27:36.932Z,3.30
2022-10-19T15:30:39.740Z,2.60
2022-10-19T15:33:49.660Z,2.90
2022-10-19T15:36:58.086Z,2.97
2022-10-19T15:40:10.361Z,2.92
2022-10-19T15:43:31.137Z,4.12
2022-10-19T15:46:46.172Z,2.67
2022-10-19T15:49:55.913Z,3.05
2022-10-19T15:52:59.963Z,3.00
2022-10-19T15:59:16.835Z,2.78
2022-10-19T16:02:20.381Z,3.17
2022-10-19T16:05:25.419Z,3.50
2022-10-19T16:08:28.193Z,3.50
2022-10-19T16:11:33.663Z,4.10
2022-10-19T16:14:36.790Z,4.25
2022-10-19T16:17:40.516Z,5.18
2022-10-19T16:20:43.437Z,4.12
2022-10-19T16:23:47.047Z,4.37
2022-10-19T16:26:49.636Z,4.10
2022-10-19T16:29:52.482Z,3.70
2022-10-19T16:32:55.042Z,3.15
2022-10-19T16:35:57.988Z,3.30
2022-10-19T16:39:01.436Z,3.03
2022-10-19T16:42:05.056Z,3.15
2022-10-19T16:45:08.887Z,3.40
2022-10-19T16:48:14.608Z,3.25
2022-10-19T16:51:43.279Z,3.28
2022-10-19T16:54:46.263Z,3.30
2022-10-19T16:57:52.591Z,2.90
2022-10-19T17:00:59.828Z,3.00
2022-10-19T17:04:02.888Z,3.10
2022-10-19T17:07:06.953Z,2.92
2022-10-19T17:10:12.961Z,3.00
2022-10-19T17:13:17.078Z,3.10
2022-10-19T17:16:21.519Z,3.60
2022-10-19T17:19:25.536Z,3.40
2022-10-19T17:22:28.891Z,3.08
2022-10-19T17:25:32.325Z,2.90
2022-10-19T17:28:36.943Z,3.30
2022-10-19T17:31:41.750Z,3.65
2022-10-19T17:34:44.851Z,3.20
2022-10-19T17:37:48.666Z,4.40
2022-10-19T17:40:51.439Z,3.50
2022-10-19T17:43:54.824Z,2.50
2022-10-19T17:46:57.978Z,2.80
2022-10-19T17:50:04.189Z,3.50
2022-10-19T17:53:08.277Z,3.50
2022-10-19T17:56:17.554Z,3.50
2022-10-19T17:59:30.071Z,3.15
2022-10-19T18:02:38.530Z,3.22
2022-10-19T18:05:42.056Z,3.00
2022-10-19T18:08:48.549Z,3.12
2022-10-19T18:11:53.124Z,2.60
2022-10-19T18:14:56.691Z,2.90
2022-10-19T18:18:00.936Z,2.87
2022-10-19T18:21:09.645Z,2.87
2022-10-19T18:24:19.869Z,2.85
2022-10-19T18:27:24.601Z,2.50
2022-10-19T18:30:28.400Z,3.30
2022-10-19T18:33:35.923Z,3.72
2022-10-19T18:36:39.443Z,2.95
2022-10-19T18:39:42.586Z,2.60
2022-10-19T18:42:46.281Z,2.30
2022-10-19T18:45:54.756Z,2.75
2022-10-19T18:48:58.809Z,2.90
2022-10-19T18:52:02.467Z,3.47
2022-10-19T18:55:06.944Z,3.12
2022-10-19T18:58:11.060Z,3.00
2022-10-19T19:01:23.646Z,2.85
2022-10-19T19:04:26.947Z,2.80
2022-10-19T19:07:32.656Z,2.58
2022-10-19T19:10:35.317Z,2.90
2022-10-19T19:13:39.312Z,3.00
2022-10-19T19:16:43.925Z,3.08
2022-10-19T19:19:47.508Z,3.28
2022-10-19T19:22:50.566Z,2.80
2022-10-19T19:25:57.034Z,2.40
2022-10-19T19:29:05.368Z,2.63
2022-10-19T19:32:15.792Z,2.40
2022-10-19T19:35:19.549Z,2.65
2022-10-19T19:38:25.486Z,2.30
2022-10-19T19:41:34.655Z,2.25
2022-10-19T19:44:38.792Z,2.27
2022-10-19T19:47:42.638Z,2.90
2022-10-19T19:50:47.456Z,3.97
2022-10-19T19:53:51.618Z,3.03
2022-10-19T19:56:55.117Z,3.25
2022-10-19T19:59:58.265Z,3.17
2022-10-19T20:03:01.634Z,4.05
2022-10-19T20:06:05.809Z,3.30
2022-10-19T20:09:09.614Z,3.40
2022-10-19T20:12:13.050Z,4.00
2022-10-19T20:15:18.609Z,3.80
2022-10-19T20:18:23.224Z,2.85
2022-10-19T20:21:28.321Z,3.28
2022-10-19T20:24:33.039Z,3.17
2022-10-19T20:27:38.805Z,3.03
2022-10-19T20:30:44.952Z,3.97
2022-10-19T20:33:48.656Z,3.20
2022-10-19T20:36:52.081Z,3.47
2022-10-19T20:39:55.152Z,3.22
2022-10-19T20:42:58.157Z,3.35
2022-10-19T20:46:14.951Z,3.03
2022-10-19T20:49:18.402Z,3.37
2022-10-19T20:52:21.492Z,4.75
2022-10-19T20:55:24.492Z,4.40
2022-10-19T20:58:27.161Z,4.05
2022-10-19T21:01:33.940Z,3.40
2022-10-19T21:04:36.676Z,3.83
2022-10-19T21:07:40.752Z,3.80
2022-10-19T21:10:43.506Z,3.78
2022-10-19T21:13:47.360Z,3.70
2022-10-19T21:16:50.487Z,3.63
2022-10-19T21:19:57.149Z,4.10
2022-10-19T21:23:00.070Z,4.35
2022-10-19T21:26:03.167Z,4.35
2022-10-19T21:29:09.706Z,4.20
2022-10-19T21:32:12.528Z,3.60
2022-10-19T21:35:15.178Z,3.60
2022-10-19T21:38:18.103Z,3.62
2022-10-19T21:41:25.416Z,3.22
2022-10-19T21:44:30.430Z,4.10
2022-10-19T21:47:33.233Z,3.90
2022-10-19T21:50:36.509Z,3.53
2022-10-19T21:53:39.105Z,3.47
2022-10-19T21:56:42.235Z,3.90
2022-10-19T21:59:44.817Z,4.40
2022-10-19T22:02:48.837Z,2.60
2022-10-19T22:05:52.826Z,3.78
2022-10-19T22:08:55.716Z,3.60
2022-10-19T22:11:58.672Z,3.25
2022-10-19T22:15:01.264Z,2.87
2022-10-19T22:18:04.358Z,3.13
2022-10-19T22:21:10.378Z,3.80
2022-10-19T22:24:15.644Z,3.62
2022-10-19T22:27:18.287Z,3.58
2022-10-19T22:30:21.233Z,3.67
2022-10-19T22:33:25.312Z,3.37
2022-10-19T22:36:29.775Z,3.62
2022-10-19T22:39:32.565Z,3.60
2022-10-19T22:42:35.847Z,3.40
2022-10-19T22:45:38.814Z,3.72
2022-10-19T22:48:43.294Z,3.10
2022-10-19T22:51:46.002Z,3.67
2022-10-19T22:54:50.736Z,3.90
2022-10-19T22:57:53.772Z,4.10
2022-10-19T23:01:06.074Z,4.00
2022-10-19T23:04:08.859Z,3.50
2022-10-19T23:07:13.329Z,3.87
2022-10-19T23:10:16.435Z,4.20
2022-10-19T23:13:19.472Z,4.07
2022-10-19T23:16:22.192Z,4.05
2022-10-19T23:19:26.391Z,4.90
2022-10-19T23:22:29.070Z,4.03
2022-10-19T23:28:42.944Z,4.30
2022-10-19T23:31:46.021Z,4.80
2022-10-19T23:34:49.761Z,4.13
2022-10-19T23:37:52.829Z,4.32
2022-10-19T23:40:55.520Z,3.95
2022-10-19T23:43:59.899Z,3.65
2022-10-19T23:47:02.438Z,3.92
2022-10-19T23:50:05.724Z,4.10
2022-10-19T23:53:08.483Z,3.70
2022-10-19T23:56:17.944Z,4.40
2022-10-19T23:59:20.746Z,3.92
